sensor_id;sensor_type;location;lat;lon;timestamp;P1;durP1;ratioP1;P2;durP2;ratioP2
22024;SDS011;11176;51.448;6.650;2022-07-29T00:02:08;2.97;;;1.05;;
22024;SDS011;11176;51.448;6.650;2022-07-29T00:04:35;4.00;;;0.90;;
22024;SDS011;11176;51.448;6.650;2022-07-29T00:07:02;4.32;;;1.27;;
22024;SDS011;11176;51.448;6.650;2022-07-29T00:09:30;5.07;;;1.17;;
22024;SDS011;11176;51.448;6.650;2022-07-29T00:11:58;4.13;;;1.10;;
22024;SDS011;11176;51.448;6.650;2022-07-29T00:14:26;3.47;;;1.13;;
22024;SDS011;11176;51.448;6.650;2022-07-29T00:16:53;3.88;;;0.93;;
22024;SDS011;11176;51.448;6.650;2022-07-29T00:19:19;4.20;;;1.13;;
22024;SDS011;11176;51.448;6.650;2022-07-29T00:21:46;2.85;;;0.90;;
22024;SDS011;11176;51.448;6.650;2022-07-29T00:24:12;4.80;;;1.00;;
22024;SDS011;11176;51.448;6.650;2022-07-29T00:26:39;3.03;;;0.90;;
22024;SDS011;11176;51.448;6.650;2022-07-29T00:29:06;3.92;;;1.15;;
22024;SDS011;11176;51.448;6.650;2022-07-29T00:31:52;5.22;;;1.10;;
22024;SDS011;11176;51.448;6.650;2022-07-29T00:34:19;3.40;;;0.98;;
22024;SDS011;11176;51.448;6.650;2022-07-29T00:37:04;3.78;;;1.17;;
22024;SDS011;11176;51.448;6.650;2022-07-29T00:39:32;2.83;;;1.10;;
22024;SDS011;11176;51.448;6.650;2022-07-29T00:42:01;3.08;;;0.95;;
22024;SDS011;11176;51.448;6.650;2022-07-29T00:44:29;5.63;;;1.20;;
22024;SDS011;11176;51.448;6.650;2022-07-29T00:46:56;3.78;;;0.95;;
22024;SDS011;11176;51.448;6.650;2022-07-29T00:49:22;3.75;;;1.02;;
22024;SDS011;11176;51.448;6.650;2022-07-29T00:51:49;4.70;;;1.15;;
22024;SDS011;11176;51.448;6.650;2022-07-29T00:54:16;4.18;;;1.30;;
22024;SDS011;11176;51.448;6.650;2022-07-29T00:56:43;4.10;;;1.10;;
22024;SDS011;11176;51.448;6.650;2022-07-29T00:59:10;3.58;;;1.35;;
22024;SDS011;11176;51.448;6.650;2022-07-29T01:01:36;7.18;;;1.02;;
22024;SDS011;11176;51.448;6.650;2022-07-29T01:04:03;3.50;;;1.00;;
22024;SDS011;11176;51.448;6.650;2022-07-29T01:06:31;4.03;;;1.00;;
22024;SDS011;11176;51.448;6.650;2022-07-29T01:08:58;4.38;;;1.10;;
22024;SDS011;11176;51.448;6.650;2022-07-29T01:11:25;3.65;;;0.95;;
22024;SDS011;11176;51.448;6.650;2022-07-29T01:13:51;6.18;;;1.10;;
22024;SDS011;11176;51.448;6.650;2022-07-29T01:16:24;2.58;;;1.00;;
22024;SDS011;11176;51.448;6.650;2022-07-29T01:19:06;5.72;;;1.20;;
22024;SDS011;11176;51.448;6.650;2022-07-29T01:21:50;3.17;;;1.02;;
22024;SDS011;11176;51.448;6.650;2022-07-29T01:24:24;4.00;;;1.10;;
22024;SDS011;11176;51.448;6.650;2022-07-29T01:26:57;4.15;;;1.00;;
22024;SDS011;11176;51.448;6.650;2022-07-29T01:29:45;3.38;;;1.00;;
22024;SDS011;11176;51.448;6.650;2022-07-29T01:32:19;5.25;;;1.23;;
22024;SDS011;11176;51.448;6.650;2022-07-29T01:43:20;7.22;;;1.40;;
22024;SDS011;11176;51.448;6.650;2022-07-29T01:45:55;8.68;;;1.60;;
22024;SDS011;11176;51.448;6.650;2022-07-29T01:51:18;4.30;;;1.70;;
22024;SDS011;11176;51.448;6.650;2022-07-29T01:53:59;6.10;;;1.42;;
22024;SDS011;11176;51.448;6.650;2022-07-29T01:58:59;3.85;;;1.42;;
22024;SDS011;11176;51.448;6.650;2022-07-29T02:01:29;5.95;;;1.65;;
22024;SDS011;11176;51.448;6.650;2022-07-29T02:03:57;5.38;;;1.60;;
22024;SDS011;11176;51.448;6.650;2022-07-29T02:06:26;6.45;;;1.30;;
22024;SDS011;11176;51.448;6.650;2022-07-29T02:08:55;4.68;;;1.30;;
22024;SDS011;11176;51.448;6.650;2022-07-29T02:11:24;4.55;;;1.40;;
22024;SDS011;11176;51.448;6.650;2022-07-29T02:13:52;4.68;;;1.50;;
22024;SDS011;11176;51.448;6.650;2022-07-29T02:16:20;4.10;;;1.30;;
22024;SDS011;11176;51.448;6.650;2022-07-29T02:18:50;3.80;;;1.42;;
22024;SDS011;11176;51.448;6.650;2022-07-29T02:21:21;5.85;;;1.30;;
22024;SDS011;11176;51.448;6.650;2022-07-29T02:23:51;3.97;;;0.80;;
22024;SDS011;11176;51.448;6.650;2022-07-29T02:26:19;7.05;;;1.10;;
22024;SDS011;11176;51.448;6.650;2022-07-29T02:28:48;3.03;;;1.13;;
22024;SDS011;11176;51.448;6.650;2022-07-29T02:31:18;3.70;;;0.85;;
22024;SDS011;11176;51.448;6.650;2022-07-29T02:33:52;3.60;;;0.80;;
22024;SDS011;11176;51.448;6.650;2022-07-29T02:36:21;3.35;;;1.10;;
22024;SDS011;11176;51.448;6.650;2022-07-29T02:38:49;4.03;;;0.98;;
22024;SDS011;11176;51.448;6.650;2022-07-29T02:41:24;4.00;;;1.00;;
22024;SDS011;11176;51.448;6.650;2022-07-29T02:43:56;5.97;;;1.60;;
22024;SDS011;11176;51.448;6.650;2022-07-29T02:46:32;3.72;;;0.90;;
22024;SDS011;11176;51.448;6.650;2022-07-29T02:52:11;4.60;;;1.00;;
22024;SDS011;11176;51.448;6.650;2022-07-29T02:54:46;5.68;;;1.10;;
22024;SDS011;11176;51.448;6.650;2022-07-29T02:57:34;4.68;;;1.10;;
22024;SDS011;11176;51.448;6.650;2022-07-29T03:00:21;2.05;;;0.70;;
22024;SDS011;11176;51.448;6.650;2022-07-29T03:02:53;4.00;;;1.00;;
22024;SDS011;11176;51.448;6.650;2022-07-29T03:05:22;3.13;;;1.30;;
22024;SDS011;11176;51.448;6.650;2022-07-29T03:07:51;2.92;;;0.82;;
22024;SDS011;11176;51.448;6.650;2022-07-29T03:10:21;4.68;;;1.27;;
22024;SDS011;11176;51.448;6.650;2022-07-29T03:12:49;4.82;;;1.05;;
22024;SDS011;11176;51.448;6.650;2022-07-29T03:15:16;4.07;;;0.98;;
22024;SDS011;11176;51.448;6.650;2022-07-29T03:17:44;2.60;;;1.00;;
22024;SDS011;11176;51.448;6.650;2022-07-29T03:20:12;4.72;;;1.27;;
22024;SDS011;11176;51.448;6.650;2022-07-29T03:22:40;2.08;;;0.80;;
22024;SDS011;11176;51.448;6.650;2022-07-29T03:25:13;3.13;;;0.90;;
22024;SDS011;11176;51.448;6.650;2022-07-29T03:27:41;6.72;;;1.20;;
22024;SDS011;11176;51.448;6.650;2022-07-29T03:30:08;2.72;;;0.93;;
22024;SDS011;11176;51.448;6.650;2022-07-29T03:32:36;1.90;;;1.00;;
22024;SDS011;11176;51.448;6.650;2022-07-29T03:35:03;2.33;;;1.00;;
22024;SDS011;11176;51.448;6.650;2022-07-29T03:37:31;1.85;;;0.88;;
22024;SDS011;11176;51.448;6.650;2022-07-29T03:40:00;4.30;;;0.85;;
22024;SDS011;11176;51.448;6.650;2022-07-29T03:42:30;3.85;;;1.05;;
22024;SDS011;11176;51.448;6.650;2022-07-29T03:45:03;4.43;;;1.05;;
22024;SDS011;11176;51.448;6.650;2022-07-29T03:47:34;5.20;;;1.10;;
22024;SDS011;11176;51.448;6.650;2022-07-29T03:50:16;2.97;;;0.90;;
22024;SDS011;11176;51.448;6.650;2022-07-29T03:52:44;3.50;;;1.20;;
22024;SDS011;11176;51.448;6.650;2022-07-29T03:55:11;2.22;;;0.90;;
22024;SDS011;11176;51.448;6.650;2022-07-29T03:57:38;2.78;;;1.05;;
22024;SDS011;11176;51.448;6.650;2022-07-29T04:00:06;3.65;;;1.20;;
22024;SDS011;11176;51.448;6.650;2022-07-29T04:02:34;2.75;;;1.30;;
22024;SDS011;11176;51.448;6.650;2022-07-29T04:05:01;3.67;;;1.50;;
22024;SDS011;11176;51.448;6.650;2022-07-29T04:07:28;4.72;;;1.65;;
22024;SDS011;11176;51.448;6.650;2022-07-29T04:09:55;8.63;;;1.70;;
22024;SDS011;11176;51.448;6.650;2022-07-29T04:12:22;4.55;;;1.30;;
22024;SDS011;11176;51.448;6.650;2022-07-29T04:14:49;3.53;;;1.50;;
22024;SDS011;11176;51.448;6.650;2022-07-29T04:17:16;6.13;;;1.73;;
22024;SDS011;11176;51.448;6.650;2022-07-29T04:19:42;4.72;;;1.70;;
22024;SDS011;11176;51.448;6.650;2022-07-29T04:22:09;5.80;;;1.92;;
22024;SDS011;11176;51.448;6.650;2022-07-29T04:24:35;4.28;;;1.77;;
22024;SDS011;11176;51.448;6.650;2022-07-29T04:27:02;4.53;;;1.80;;
22024;SDS011;11176;51.448;6.650;2022-07-29T04:29:28;5.38;;;1.63;;
22024;SDS011;11176;51.448;6.650;2022-07-29T04:31:55;5.85;;;2.00;;
22024;SDS011;11176;51.448;6.650;2022-07-29T04:34:21;4.25;;;1.83;;
22024;SDS011;11176;51.448;6.650;2022-07-29T04:36:53;7.57;;;2.55;;
22024;SDS011;11176;51.448;6.650;2022-07-29T04:39:19;7.00;;;2.13;;
22024;SDS011;11176;51.448;6.650;2022-07-29T04:41:48;6.63;;;2.20;;
22024;SDS011;11176;51.448;6.650;2022-07-29T04:44:17;5.20;;;1.92;;
22024;SDS011;11176;51.448;6.650;2022-07-29T04:46:44;5.03;;;2.03;;
22024;SDS011;11176;51.448;6.650;2022-07-29T04:49:11;6.15;;;1.85;;
22024;SDS011;11176;51.448;6.650;2022-07-29T04:51:38;3.85;;;1.88;;
22024;SDS011;11176;51.448;6.650;2022-07-29T04:54:04;6.15;;;1.98;;
22024;SDS011;11176;51.448;6.650;2022-07-29T04:56:32;3.15;;;1.63;;
22024;SDS011;11176;51.448;6.650;2022-07-29T04:58:58;4.43;;;1.70;;
22024;SDS011;11176;51.448;6.650;2022-07-29T05:01:25;7.13;;;2.28;;
22024;SDS011;11176;51.448;6.650;2022-07-29T05:03:51;3.78;;;2.30;;
22024;SDS011;11176;51.448;6.650;2022-07-29T05:08:51;5.85;;;1.90;;
22024;SDS011;11176;51.448;6.650;2022-07-29T05:11:17;5.20;;;1.92;;
22024;SDS011;11176;51.448;6.650;2022-07-29T05:13:48;2.85;;;1.67;;
22024;SDS011;11176;51.448;6.650;2022-07-29T05:16:14;3.40;;;1.90;;
22024;SDS011;11176;51.448;6.650;2022-07-29T05:18:41;4.68;;;2.08;;
22024;SDS011;11176;51.448;6.650;2022-07-29T05:21:08;5.50;;;2.00;;
22024;SDS011;11176;51.448;6.650;2022-07-29T05:23:34;4.15;;;2.30;;
22024;SDS011;11176;51.448;6.650;2022-07-29T05:26:01;4.50;;;2.22;;
22024;SDS011;11176;51.448;6.650;2022-07-29T05:28:28;4.20;;;2.00;;
22024;SDS011;11176;51.448;6.650;2022-07-29T05:30:54;5.07;;;2.10;;
22024;SDS011;11176;51.448;6.650;2022-07-29T05:33:21;2.75;;;1.73;;
22024;SDS011;11176;51.448;6.650;2022-07-29T05:36:01;6.05;;;2.25;;
22024;SDS011;11176;51.448;6.650;2022-07-29T05:38:28;3.78;;;1.90;;
22024;SDS011;11176;51.448;6.650;2022-07-29T05:40:56;5.18;;;2.10;;
22024;SDS011;11176;51.448;6.650;2022-07-29T05:43:23;5.03;;;2.15;;
22024;SDS011;11176;51.448;6.650;2022-07-29T05:45:50;5.28;;;2.03;;
22024;SDS011;11176;51.448;6.650;2022-07-29T05:48:16;4.15;;;2.00;;
22024;SDS011;11176;51.448;6.650;2022-07-29T05:50:43;4.60;;;1.95;;
22024;SDS011;11176;51.448;6.650;2022-07-29T05:53:13;5.97;;;2.80;;
22024;SDS011;11176;51.448;6.650;2022-07-29T05:55:46;6.37;;;2.60;;
22024;SDS011;11176;51.448;6.650;2022-07-29T05:58:13;6.85;;;2.60;;
22024;SDS011;11176;51.448;6.650;2022-07-29T06:00:39;6.45;;;2.60;;
22024;SDS011;11176;51.448;6.650;2022-07-29T06:03:06;3.83;;;2.53;;
22024;SDS011;11176;51.448;6.650;2022-07-29T06:05:32;8.05;;;3.20;;
22024;SDS011;11176;51.448;6.650;2022-07-29T06:07:59;5.13;;;2.72;;
22024;SDS011;11176;51.448;6.650;2022-07-29T06:10:25;9.43;;;3.28;;
22024;SDS011;11176;51.448;6.650;2022-07-29T06:12:52;6.00;;;2.97;;
22024;SDS011;11176;51.448;6.650;2022-07-29T06:15:19;6.07;;;2.90;;
22024;SDS011;11176;51.448;6.650;2022-07-29T06:17:46;7.90;;;3.33;;
22024;SDS011;11176;51.448;6.650;2022-07-29T06:20:29;7.75;;;3.30;;
22024;SDS011;11176;51.448;6.650;2022-07-29T06:22:58;7.15;;;3.38;;
22024;SDS011;11176;51.448;6.650;2022-07-29T06:25:25;9.57;;;3.80;;
22024;SDS011;11176;51.448;6.650;2022-07-29T06:27:55;8.35;;;3.97;;
22024;SDS011;11176;51.448;6.650;2022-07-29T06:30:21;8.68;;;4.10;;
22024;SDS011;11176;51.448;6.650;2022-07-29T06:32:48;8.25;;;3.65;;
22024;SDS011;11176;51.448;6.650;2022-07-29T06:35:15;8.60;;;3.33;;
22024;SDS011;11176;51.448;6.650;2022-07-29T06:38:02;7.28;;;3.25;;
22024;SDS011;11176;51.448;6.650;2022-07-29T06:40:43;4.07;;;2.60;;
22024;SDS011;11176;51.448;6.650;2022-07-29T06:43:26;5.90;;;2.15;;
22024;SDS011;11176;51.448;6.650;2022-07-29T06:45:58;3.95;;;2.08;;
22024;SDS011;11176;51.448;6.650;2022-07-29T06:48:27;7.55;;;2.72;;
22024;SDS011;11176;51.448;6.650;2022-07-29T06:50:54;5.90;;;2.65;;
22024;SDS011;11176;51.448;6.650;2022-07-29T06:53:21;6.60;;;2.40;;
22024;SDS011;11176;51.448;6.650;2022-07-29T06:55:48;4.32;;;2.40;;
22024;SDS011;11176;51.448;6.650;2022-07-29T06:58:15;4.97;;;2.33;;
22024;SDS011;11176;51.448;6.650;2022-07-29T07:00:53;4.53;;;2.10;;
22024;SDS011;11176;51.448;6.650;2022-07-29T07:03:21;5.95;;;2.35;;
22024;SDS011;11176;51.448;6.650;2022-07-29T07:05:48;4.97;;;2.53;;
22024;SDS011;11176;51.448;6.650;2022-07-29T07:08:15;7.82;;;3.40;;
22024;SDS011;11176;51.448;6.650;2022-07-29T07:10:42;9.10;;;3.10;;
22024;SDS011;11176;51.448;6.650;2022-07-29T07:13:09;7.15;;;3.50;;
22024;SDS011;11176;51.448;6.650;2022-07-29T07:15:36;7.43;;;3.20;;
22024;SDS011;11176;51.448;6.650;2022-07-29T07:18:05;6.97;;;3.22;;
22024;SDS011;11176;51.448;6.650;2022-07-29T07:20:33;7.80;;;3.33;;
22024;SDS011;11176;51.448;6.650;2022-07-29T07:22:59;6.45;;;2.92;;
22024;SDS011;11176;51.448;6.650;2022-07-29T07:25:26;6.55;;;3.47;;
22024;SDS011;11176;51.448;6.650;2022-07-29T07:27:53;10.50;;;4.10;;
22024;SDS011;11176;51.448;6.650;2022-07-29T07:30:20;6.50;;;3.45;;
22024;SDS011;11176;51.448;6.650;2022-07-29T07:32:47;8.88;;;3.60;;
22024;SDS011;11176;51.448;6.650;2022-07-29T07:35:13;7.32;;;3.70;;
22024;SDS011;11176;51.448;6.650;2022-07-29T07:37:40;6.20;;;3.45;;
22024;SDS011;11176;51.448;6.650;2022-07-29T07:40:07;8.05;;;4.63;;
22024;SDS011;11176;51.448;6.650;2022-07-29T07:42:35;5.93;;;3.95;;
22024;SDS011;11176;51.448;6.650;2022-07-29T07:45:05;10.20;;;4.03;;
22024;SDS011;11176;51.448;6.650;2022-07-29T07:47:42;8.02;;;4.10;;
22024;SDS011;11176;51.448;6.650;2022-07-29T07:50:09;5.20;;;3.63;;
22024;SDS011;11176;51.448;6.650;2022-07-29T07:52:51;8.82;;;3.80;;
22024;SDS011;11176;51.448;6.650;2022-07-29T07:55:19;7.68;;;3.50;;
22024;SDS011;11176;51.448;6.650;2022-07-29T07:57:47;5.53;;;3.90;;
22024;SDS011;11176;51.448;6.650;2022-07-29T08:00:13;6.43;;;3.75;;
22024;SDS011;11176;51.448;6.650;2022-07-29T08:02:41;7.22;;;3.58;;
22024;SDS011;11176;51.448;6.650;2022-07-29T08:05:09;5.60;;;3.80;;
22024;SDS011;11176;51.448;6.650;2022-07-29T08:07:38;6.95;;;4.28;;
22024;SDS011;11176;51.448;6.650;2022-07-29T08:10:05;7.50;;;3.40;;
22024;SDS011;11176;51.448;6.650;2022-07-29T08:12:31;8.27;;;4.32;;
22024;SDS011;11176;51.448;6.650;2022-07-29T08:14:58;8.55;;;4.18;;
22024;SDS011;11176;51.448;6.650;2022-07-29T08:17:24;7.95;;;4.50;;
22024;SDS011;11176;51.448;6.650;2022-07-29T08:19:52;6.75;;;4.10;;
22024;SDS011;11176;51.448;6.650;2022-07-29T08:22:18;7.13;;;4.00;;
22024;SDS011;11176;51.448;6.650;2022-07-29T08:24:45;6.70;;;4.03;;
22024;SDS011;11176;51.448;6.650;2022-07-29T08:27:22;9.75;;;4.80;;
22024;SDS011;11176;51.448;6.650;2022-07-29T08:30:08;8.75;;;5.55;;
22024;SDS011;11176;51.448;6.650;2022-07-29T08:32:36;9.10;;;4.60;;
22024;SDS011;11176;51.448;6.650;2022-07-29T08:35:19;6.13;;;4.10;;
22024;SDS011;11176;51.448;6.650;2022-07-29T08:37:47;6.47;;;4.20;;
22024;SDS011;11176;51.448;6.650;2022-07-29T08:40:15;7.43;;;3.60;;
22024;SDS011;11176;51.448;6.650;2022-07-29T08:42:41;6.43;;;3.60;;
22024;SDS011;11176;51.448;6.650;2022-07-29T08:45:08;8.07;;;3.40;;
22024;SDS011;11176;51.448;6.650;2022-07-29T08:47:35;7.35;;;2.67;;
22024;SDS011;11176;51.448;6.650;2022-07-29T08:50:08;6.68;;;3.95;;
22024;SDS011;11176;51.448;6.650;2022-07-29T08:52:37;5.53;;;3.05;;
22024;SDS011;11176;51.448;6.650;2022-07-29T08:55:05;5.95;;;3.35;;
22024;SDS011;11176;51.448;6.650;2022-07-29T08:57:35;8.23;;;3.40;;
22024;SDS011;11176;51.448;6.650;2022-07-29T09:00:05;6.82;;;3.70;;
22024;SDS011;11176;51.448;6.650;2022-07-29T09:02:41;6.63;;;3.58;;
22024;SDS011;11176;51.448;6.650;2022-07-29T09:05:13;5.25;;;3.10;;
22024;SDS011;11176;51.448;6.650;2022-07-29T09:07:43;7.53;;;4.30;;
22024;SDS011;11176;51.448;6.650;2022-07-29T09:10:10;8.40;;;3.83;;
22024;SDS011;11176;51.448;6.650;2022-07-29T09:12:37;10.73;;;3.70;;
22024;SDS011;11176;51.448;6.650;2022-07-29T09:15:04;10.50;;;3.70;;
22024;SDS011;11176;51.448;6.650;2022-07-29T09:17:45;5.78;;;3.47;;
22024;SDS011;11176;51.448;6.650;2022-07-29T09:20:16;7.35;;;3.50;;
22024;SDS011;11176;51.448;6.650;2022-07-29T09:22:44;9.45;;;3.92;;
22024;SDS011;11176;51.448;6.650;2022-07-29T09:25:37;8.50;;;3.85;;
22024;SDS011;11176;51.448;6.650;2022-07-29T09:28:10;7.38;;;4.57;;
22024;SDS011;11176;51.448;6.650;2022-07-29T09:30:51;10.55;;;4.05;;
22024;SDS011;11176;51.448;6.650;2022-07-29T09:33:20;11.68;;;4.95;;
22024;SDS011;11176;51.448;6.650;2022-07-29T09:36:03;9.57;;;4.68;;
22024;SDS011;11176;51.448;6.650;2022-07-29T09:40:58;10.90;;;4.03;;
22024;SDS011;11176;51.448;6.650;2022-07-29T09:43:31;9.10;;;4.20;;
22024;SDS011;11176;51.448;6.650;2022-07-29T09:46:10;8.77;;;4.18;;
22024;SDS011;11176;51.448;6.650;2022-07-29T09:48:40;11.75;;;5.13;;
22024;SDS011;11176;51.448;6.650;2022-07-29T09:51:19;11.45;;;5.15;;
22024;SDS011;11176;51.448;6.650;2022-07-29T09:53:55;9.02;;;5.07;;
22024;SDS011;11176;51.448;6.650;2022-07-29T09:56:40;11.55;;;5.88;;
22024;SDS011;11176;51.448;6.650;2022-07-29T09:59:07;9.82;;;5.00;;
22024;SDS011;11176;51.448;6.650;2022-07-29T10:01:35;12.80;;;5.72;;
22024;SDS011;11176;51.448;6.650;2022-07-29T10:04:02;12.07;;;5.07;;
22024;SDS011;11176;51.448;6.650;2022-07-29T10:06:28;10.20;;;4.80;;
22024;SDS011;11176;51.448;6.650;2022-07-29T10:09:06;12.75;;;4.93;;
22024;SDS011;11176;51.448;6.650;2022-07-29T10:11:34;9.50;;;4.40;;
22024;SDS011;11176;51.448;6.650;2022-07-29T10:14:15;10.30;;;4.55;;
22024;SDS011;11176;51.448;6.650;2022-07-29T10:16:42;15.30;;;4.70;;
22024;SDS011;11176;51.448;6.650;2022-07-29T10:19:09;9.63;;;4.47;;
22024;SDS011;11176;51.448;6.650;2022-07-29T10:21:35;10.55;;;4.60;;
22024;SDS011;11176;51.448;6.650;2022-07-29T10:24:04;8.73;;;4.35;;
22024;SDS011;11176;51.448;6.650;2022-07-29T10:26:39;9.05;;;4.15;;
22024;SDS011;11176;51.448;6.650;2022-07-29T10:29:07;8.95;;;3.75;;
22024;SDS011;11176;51.448;6.650;2022-07-29T10:31:39;6.07;;;3.45;;
22024;SDS011;11176;51.448;6.650;2022-07-29T10:37:03;8.60;;;3.28;;
22024;SDS011;11176;51.448;6.650;2022-07-29T10:42:25;5.13;;;2.92;;
22024;SDS011;11176;51.448;6.650;2022-07-29T10:44:59;5.03;;;2.85;;
22024;SDS011;11176;51.448;6.650;2022-07-29T10:47:29;5.43;;;3.00;;
22024;SDS011;11176;51.448;6.650;2022-07-29T10:49:57;6.03;;;2.53;;
22024;SDS011;11176;51.448;6.650;2022-07-29T10:55:34;6.68;;;2.63;;
22024;SDS011;11176;51.448;6.650;2022-07-29T11:01:00;5.10;;;3.15;;
22024;SDS011;11176;51.448;6.650;2022-07-29T11:04:04;7.40;;;3.22;;
22024;SDS011;11176;51.448;6.650;2022-07-29T11:09:28;8.50;;;3.38;;
22024;SDS011;11176;51.448;6.650;2022-07-29T11:12:04;5.80;;;2.85;;
22024;SDS011;11176;51.448;6.650;2022-07-29T11:15:04;8.68;;;3.60;;
22024;SDS011;11176;51.448;6.650;2022-07-29T11:26:12;8.18;;;2.53;;
22024;SDS011;11176;51.448;6.650;2022-07-29T11:31:37;6.22;;;2.40;;
22024;SDS011;11176;51.448;6.650;2022-07-29T11:37:14;6.85;;;3.00;;
22024;SDS011;11176;51.448;6.650;2022-07-29T11:48:03;6.38;;;2.28;;
22024;SDS011;11176;51.448;6.650;2022-07-29T11:50:51;6.70;;;1.90;;
22024;SDS011;11176;51.448;6.650;2022-07-29T11:53:18;5.88;;;1.75;;
22024;SDS011;11176;51.448;6.650;2022-07-29T11:55:45;4.10;;;1.48;;
22024;SDS011;11176;51.448;6.650;2022-07-29T11:58:21;4.40;;;1.50;;
22024;SDS011;11176;51.448;6.650;2022-07-29T12:00:51;7.35;;;2.00;;
22024;SDS011;11176;51.448;6.650;2022-07-29T12:03:27;4.85;;;1.85;;
22024;SDS011;11176;51.448;6.650;2022-07-29T12:06:02;7.40;;;1.55;;
22024;SDS011;11176;51.448;6.650;2022-07-29T12:08:41;2.33;;;1.20;;
22024;SDS011;11176;51.448;6.650;2022-07-29T12:11:16;5.43;;;2.05;;
22024;SDS011;11176;51.448;6.650;2022-07-29T12:13:46;5.95;;;1.85;;
22024;SDS011;11176;51.448;6.650;2022-07-29T12:16:14;4.03;;;1.85;;
22024;SDS011;11176;51.448;6.650;2022-07-29T12:18:55;4.18;;;1.60;;
22024;SDS011;11176;51.448;6.650;2022-07-29T12:21:25;5.20;;;1.92;;
22024;SDS011;11176;51.448;6.650;2022-07-29T12:23:54;4.28;;;1.60;;
22024;SDS011;11176;51.448;6.650;2022-07-29T12:26:27;6.82;;;2.00;;
22024;SDS011;11176;51.448;6.650;2022-07-29T12:28:53;5.78;;;2.40;;
22024;SDS011;11176;51.448;6.650;2022-07-29T12:31:21;4.10;;;1.85;;
22024;SDS011;11176;51.448;6.650;2022-07-29T12:34:08;7.90;;;2.22;;
22024;SDS011;11176;51.448;6.650;2022-07-29T12:36:35;9.65;;;2.10;;
22024;SDS011;11176;51.448;6.650;2022-07-29T12:39:02;4.55;;;2.13;;
22024;SDS011;11176;51.448;6.650;2022-07-29T12:41:30;4.18;;;1.88;;
22024;SDS011;11176;51.448;6.650;2022-07-29T12:43:57;5.70;;;2.10;;
22024;SDS011;11176;51.448;6.650;2022-07-29T12:46:24;4.10;;;1.58;;
22024;SDS011;11176;51.448;6.650;2022-07-29T12:48:51;7.93;;;1.52;;
22024;SDS011;11176;51.448;6.650;2022-07-29T12:51:36;6.15;;;2.05;;
22024;SDS011;11176;51.448;6.650;2022-07-29T12:54:05;4.47;;;1.73;;
22024;SDS011;11176;51.448;6.650;2022-07-29T12:56:34;4.95;;;2.22;;
22024;SDS011;11176;51.448;6.650;2022-07-29T12:59:19;4.05;;;1.88;;
22024;SDS011;11176;51.448;6.650;2022-07-29T13:01:48;6.25;;;2.45;;
22024;SDS011;11176;51.448;6.650;2022-07-29T13:04:26;5.97;;;1.80;;
22024;SDS011;11176;51.448;6.650;2022-07-29T13:06:58;4.68;;;1.80;;
22024;SDS011;11176;51.448;6.650;2022-07-29T13:09:37;5.85;;;2.00;;
22024;SDS011;11176;51.448;6.650;2022-07-29T13:12:08;5.00;;;2.17;;
22024;SDS011;11176;51.448;6.650;2022-07-29T13:19:40;6.07;;;1.90;;
22024;SDS011;11176;51.448;6.650;2022-07-29T13:22:11;6.03;;;2.00;;
22024;SDS011;11176;51.448;6.650;2022-07-29T13:24:49;5.10;;;1.90;;
22024;SDS011;11176;51.448;6.650;2022-07-29T13:27:18;5.75;;;2.33;;
22024;SDS011;11176;51.448;6.650;2022-07-29T13:29:46;6.22;;;2.25;;
22024;SDS011;11176;51.448;6.650;2022-07-29T13:32:13;6.43;;;2.20;;
22024;SDS011;11176;51.448;6.650;2022-07-29T13:34:39;4.65;;;1.83;;
22024;SDS011;11176;51.448;6.650;2022-07-29T13:37:07;3.20;;;1.70;;
22024;SDS011;11176;51.448;6.650;2022-07-29T13:39:34;5.47;;;2.40;;
22024;SDS011;11176;51.448;6.650;2022-07-29T13:42:00;4.85;;;2.00;;
22024;SDS011;11176;51.448;6.650;2022-07-29T13:44:27;6.35;;;2.25;;
22024;SDS011;11176;51.448;6.650;2022-07-29T13:46:53;5.32;;;2.20;;
22024;SDS011;11176;51.448;6.650;2022-07-29T13:49:20;7.35;;;2.28;;
22024;SDS011;11176;51.448;6.650;2022-07-29T13:51:46;7.30;;;2.30;;
22024;SDS011;11176;51.448;6.650;2022-07-29T13:54:13;4.00;;;1.95;;
22024;SDS011;11176;51.448;6.650;2022-07-29T13:56:39;4.75;;;1.80;;
22024;SDS011;11176;51.448;6.650;2022-07-29T13:59:06;4.88;;;2.05;;
22024;SDS011;11176;51.448;6.650;2022-07-29T14:01:34;5.90;;;1.88;;
22024;SDS011;11176;51.448;6.650;2022-07-29T14:04:01;5.82;;;2.40;;
22024;SDS011;11176;51.448;6.650;2022-07-29T14:06:27;6.28;;;1.98;;
22024;SDS011;11176;51.448;6.650;2022-07-29T14:08:55;4.32;;;2.20;;
22024;SDS011;11176;51.448;6.650;2022-07-29T14:11:21;4.40;;;2.13;;
22024;SDS011;11176;51.448;6.650;2022-07-29T14:13:48;8.60;;;2.05;;
22024;SDS011;11176;51.448;6.650;2022-07-29T14:16:14;3.97;;;1.73;;
22024;SDS011;11176;51.448;6.650;2022-07-29T14:18:41;4.18;;;1.88;;
22024;SDS011;11176;51.448;6.650;2022-07-29T14:21:08;2.53;;;1.20;;
22024;SDS011;11176;51.448;6.650;2022-07-29T14:23:35;3.80;;;1.58;;
22024;SDS011;11176;51.448;6.650;2022-07-29T14:26:07;4.25;;;1.75;;
22024;SDS011;11176;51.448;6.650;2022-07-29T14:28:38;3.72;;;1.50;;
22024;SDS011;11176;51.448;6.650;2022-07-29T14:31:07;4.80;;;1.40;;
22024;SDS011;11176;51.448;6.650;2022-07-29T14:33:33;4.05;;;1.60;;
22024;SDS011;11176;51.448;6.650;2022-07-29T14:36:00;3.05;;;1.30;;
22024;SDS011;11176;51.448;6.650;2022-07-29T14:38:26;3.03;;;1.30;;
22024;SDS011;11176;51.448;6.650;2022-07-29T14:40:53;4.63;;;1.52;;
22024;SDS011;11176;51.448;6.650;2022-07-29T14:43:19;3.75;;;1.52;;
22024;SDS011;11176;51.448;6.650;2022-07-29T14:45:46;3.95;;;1.70;;
22024;SDS011;11176;51.448;6.650;2022-07-29T14:48:13;4.53;;;1.30;;
22024;SDS011;11176;51.448;6.650;2022-07-29T14:50:40;3.72;;;1.65;;
22024;SDS011;11176;51.448;6.650;2022-07-29T14:53:06;5.03;;;1.45;;
22024;SDS011;11176;51.448;6.650;2022-07-29T14:55:32;8.40;;;1.52;;
22024;SDS011;11176;51.448;6.650;2022-07-29T14:57:59;3.83;;;1.40;;
22024;SDS011;11176;51.448;6.650;2022-07-29T15:00:36;6.47;;;1.63;;
22024;SDS011;11176;51.448;6.650;2022-07-29T15:03:03;4.22;;;1.38;;
22024;SDS011;11176;51.448;6.650;2022-07-29T15:05:31;3.97;;;1.23;;
22024;SDS011;11176;51.448;6.650;2022-07-29T15:07:58;4.80;;;1.60;;
22024;SDS011;11176;51.448;6.650;2022-07-29T15:10:25;4.85;;;1.40;;
22024;SDS011;11176;51.448;6.650;2022-07-29T15:12:55;3.60;;;1.50;;
22024;SDS011;11176;51.448;6.650;2022-07-29T15:15:21;2.70;;;1.38;;
22024;SDS011;11176;51.448;6.650;2022-07-29T15:17:48;4.35;;;1.50;;
22024;SDS011;11176;51.448;6.650;2022-07-29T15:20:14;4.90;;;1.60;;
22024;SDS011;11176;51.448;6.650;2022-07-29T15:22:41;3.85;;;1.58;;
22024;SDS011;11176;51.448;6.650;2022-07-29T15:25:09;3.20;;;1.67;;
22024;SDS011;11176;51.448;6.650;2022-07-29T15:27:35;4.25;;;1.40;;
22024;SDS011;11176;51.448;6.650;2022-07-29T15:30:02;3.75;;;1.40;;
22024;SDS011;11176;51.448;6.650;2022-07-29T15:32:29;3.03;;;1.30;;
22024;SDS011;11176;51.448;6.650;2022-07-29T15:34:55;3.67;;;1.33;;
22024;SDS011;11176;51.448;6.650;2022-07-29T15:37:22;5.45;;;1.27;;
22024;SDS011;11176;51.448;6.650;2022-07-29T15:39:48;5.00;;;1.75;;
22024;SDS011;11176;51.448;6.650;2022-07-29T15:42:15;3.53;;;1.30;;
22024;SDS011;11176;51.448;6.650;2022-07-29T15:44:43;3.63;;;1.52;;
22024;SDS011;11176;51.448;6.650;2022-07-29T15:47:09;5.38;;;1.80;;
22024;SDS011;11176;51.448;6.650;2022-07-29T15:49:38;5.25;;;1.60;;
22024;SDS011;11176;51.448;6.650;2022-07-29T15:52:15;3.17;;;1.60;;
22024;SDS011;11176;51.448;6.650;2022-07-29T15:54:45;4.90;;;1.67;;
22024;SDS011;11176;51.448;6.650;2022-07-29T15:57:12;3.40;;;1.60;;
22024;SDS011;11176;51.448;6.650;2022-07-29T15:59:38;5.55;;;1.60;;
22024;SDS011;11176;51.448;6.650;2022-07-29T16:02:05;8.93;;;2.15;;
22024;SDS011;11176;51.448;6.650;2022-07-29T16:04:32;5.00;;;1.80;;
22024;SDS011;11176;51.448;6.650;2022-07-29T16:06:58;6.35;;;2.30;;
22024;SDS011;11176;51.448;6.650;2022-07-29T16:09:25;7.70;;;1.95;;